createdAt,value
2023-03-23T15:59:45.277Z,15.81
2023-03-23T16:02:22.188Z,15.85
2023-03-23T16:04:51.194Z,15.57
2023-03-23T16:07:24.203Z,15.68
2023-03-23T16:09:54.069Z,15.60
2023-03-23T16:12:23.666Z,15.50
2023-03-23T16:14:52.028Z,15.51
2023-03-23T16:17:21.744Z,15.47
2023-03-23T16:19:50.252Z,15.61
2023-03-23T16:22:18.938Z,15.54
2023-03-23T16:24:47.672Z,15.48
2023-03-23T16:27:17.783Z,15.67
2023-03-23T16:30:00.357Z,15.95
2023-03-23T16:35:01.516Z,15.81
2023-03-23T16:37:33.290Z,15.70
2023-03-23T16:40:05.962Z,15.53
2023-03-23T16:42:35.593Z,16.00
2023-03-23T16:45:04.084Z,16.10
2023-03-23T16:47:32.394Z,15.43
2023-03-23T16:50:00.795Z,15.44
2023-03-23T16:52:29.335Z,15.43
2023-03-23T16:54:57.686Z,15.58
2023-03-23T16:57:26.932Z,15.35
2023-03-23T16:59:58.417Z,15.33
2023-03-23T17:02:27.155Z,15.25
2023-03-23T17:04:58.104Z,15.30
2023-03-23T17:07:26.752Z,15.27
2023-03-23T17:09:57.947Z,15.39
2023-03-23T17:12:26.365Z,15.45
2023-03-23T17:14:56.218Z,15.48
2023-03-23T17:17:25.072Z,15.17
2023-03-23T17:19:53.535Z,15.18
2023-03-23T17:22:22.075Z,15.05
2023-03-23T17:24:50.681Z,15.00
2023-03-23T17:27:21.635Z,15.11
2023-03-23T17:29:50.276Z,15.14
2023-03-23T17:32:21.676Z,14.90
2023-03-23T17:34:49.998Z,15.29
2023-03-23T17:37:18.579Z,14.93
2023-03-23T17:39:47.944Z,15.20
2023-03-23T17:42:18.728Z,15.20
2023-03-23T17:44:47.020Z,14.84
2023-03-23T17:47:16.110Z,14.84
2023-03-23T17:49:47.841Z,15.01
2023-03-23T17:52:16.184Z,15.22
2023-03-23T17:54:44.648Z,14.93
2023-03-23T17:57:13.172Z,14.77
2023-03-23T17:59:41.573Z,14.89
2023-03-23T18:02:13.837Z,14.88
2023-03-23T18:04:43.057Z,15.25
2023-03-23T18:07:13.091Z,15.00
2023-03-23T18:09:43.040Z,15.29
2023-03-23T18:12:12.412Z,15.05
2023-03-23T18:14:40.707Z,14.87
2023-03-23T18:17:08.977Z,15.10
2023-03-23T18:19:37.308Z,15.06
2023-03-23T18:22:05.681Z,14.76
2023-03-23T18:24:36.603Z,15.04
2023-03-23T18:27:04.940Z,15.06
2023-03-23T18:29:33.195Z,15.13
2023-03-23T18:32:01.496Z,14.98
2023-03-23T18:34:31.248Z,15.13
2023-03-23T18:36:59.622Z,15.04
2023-03-23T18:39:28.011Z,15.08
2023-03-23T18:41:57.756Z,15.19
2023-03-23T18:44:28.605Z,15.29
2023-03-23T18:46:57.260Z,15.27
2023-03-23T18:49:25.604Z,15.33
2023-03-23T18:51:53.865Z,15.38
2023-03-23T18:54:22.208Z,15.41
2023-03-23T18:56:50.658Z,15.40
2023-03-23T18:59:23.851Z,15.45
2023-03-23T19:01:52.867Z,15.54
2023-03-23T19:04:22.359Z,15.58
2023-03-23T19:06:51.355Z,15.62
2023-03-23T19:09:19.787Z,15.58
2023-03-23T19:11:50.188Z,15.63
2023-03-23T19:14:19.914Z,15.63
2023-03-23T19:16:48.492Z,15.70
2023-03-23T19:19:17.167Z,15.63
2023-03-23T19:21:46.990Z,15.62
2023-03-23T19:24:17.383Z,15.72
2023-03-23T19:26:47.997Z,15.71
2023-03-23T19:29:26.800Z,15.69
2023-03-23T19:31:58.746Z,15.87
2023-03-23T19:34:30.557Z,15.83
2023-03-23T19:37:05.487Z,15.82
2023-03-23T19:39:36.914Z,15.87
2023-03-23T19:42:05.338Z,15.83
2023-03-23T19:44:34.883Z,15.86
2023-03-23T19:47:07.914Z,15.79
2023-03-23T19:49:36.618Z,15.68
2023-03-23T19:52:10.523Z,15.62
2023-03-23T19:54:41.470Z,15.47
2023-03-23T19:57:10.935Z,15.57
2023-03-23T19:59:39.958Z,15.58
2023-03-23T20:02:11.941Z,15.45
2023-03-23T20:04:43.496Z,15.52
2023-03-23T20:07:12.519Z,15.49
2023-03-23T20:09:40.968Z,15.46
2023-03-23T20:12:09.890Z,15.38
2023-03-23T20:14:43.957Z,15.23
2023-03-23T20:17:14.550Z,15.46
2023-03-23T20:19:43.182Z,15.27
2023-03-23T20:22:11.494Z,15.26
2023-03-23T20:24:40.066Z,15.27
2023-03-23T20:27:08.610Z,15.25
2023-03-23T20:29:37.048Z,15.07
2023-03-23T20:32:07.395Z,15.26
2023-03-23T20:34:37.653Z,15.21
2023-03-23T20:37:06.159Z,15.09
2023-03-23T20:39:34.641Z,15.08
2023-03-23T20:42:05.925Z,14.98
2023-03-23T20:44:36.084Z,15.19
2023-03-23T20:47:08.433Z,15.08
2023-03-23T20:49:40.361Z,14.95
2023-03-23T20:52:11.889Z,14.82
2023-03-23T20:54:40.836Z,14.88
2023-03-23T20:57:09.371Z,14.83
2023-03-23T20:59:37.850Z,14.77
2023-03-23T21:02:06.262Z,14.78
2023-03-23T21:04:37.229Z,14.74
2023-03-23T21:07:07.637Z,14.82
2023-03-23T21:09:36.613Z,14.75
2023-03-23T21:12:06.319Z,14.52
2023-03-23T21:14:34.959Z,14.59
2023-03-23T21:17:04.205Z,14.63
2023-03-23T21:19:33.264Z,14.41
2023-03-23T21:22:02.027Z,14.46
2023-03-23T21:24:32.821Z,14.16
2023-03-23T21:27:02.976Z,14.30
2023-03-23T21:29:31.466Z,14.28
2023-03-23T21:32:08.409Z,14.68
2023-03-23T21:34:38.303Z,14.27
2023-03-23T21:37:06.716Z,14.28
2023-03-23T21:39:36.593Z,14.20
2023-03-23T21:42:06.928Z,14.27
2023-03-23T21:44:35.856Z,14.30
2023-03-23T21:47:04.721Z,14.18
2023-03-23T21:49:33.351Z,14.37
2023-03-23T21:52:02.449Z,14.47
2023-03-23T21:54:31.644Z,14.12
2023-03-23T21:57:01.939Z,14.37
2023-03-23T22:02:38.109Z,14.21
2023-03-23T22:05:06.964Z,14.56
2023-03-23T22:07:39.080Z,14.59
2023-03-23T22:10:09.778Z,14.31
2023-03-23T22:12:41.710Z,14.21
2023-03-23T22:15:15.123Z,14.34
2023-03-23T22:17:45.093Z,14.25
2023-03-23T22:20:14.765Z,14.30
2023-03-23T22:22:43.348Z,14.35
2023-03-23T22:25:11.786Z,14.05
2023-03-23T22:27:40.676Z,14.14
2023-03-23T22:30:09.926Z,14.34
2023-03-23T22:32:38.433Z,14.20
2023-03-23T22:35:12.440Z,14.19
2023-03-23T22:37:41.230Z,14.37
2023-03-23T22:40:11.408Z,14.33
2023-03-23T22:42:42.271Z,14.29
2023-03-23T22:45:10.946Z,14.23
2023-03-23T22:47:39.489Z,14.54
2023-03-23T22:50:10.666Z,14.23
2023-03-23T22:52:39.328Z,14.28
2023-03-23T22:55:09.754Z,14.34
2023-03-23T22:57:40.246Z,14.58
2023-03-23T23:00:14.690Z,14.27
2023-03-23T23:02:43.719Z,14.24
2023-03-23T23:05:14.344Z,14.34
2023-03-23T23:07:42.819Z,14.16
2023-03-23T23:10:11.292Z,14.01
2023-03-23T23:12:42.271Z,14.07
2023-03-23T23:15:14.485Z,14.03
2023-03-23T23:17:43.224Z,13.82
2023-03-23T23:20:14.122Z,13.89
2023-03-23T23:22:44.531Z,13.94
2023-03-23T23:25:13.675Z,13.90
2023-03-23T23:27:42.335Z,14.01
2023-03-23T23:30:12.502Z,13.94
2023-03-23T23:32:42.743Z,13.90
2023-03-23T23:35:15.152Z,13.84
2023-03-23T23:37:43.550Z,13.96
2023-03-23T23:40:15.155Z,13.85
2023-03-23T23:42:44.426Z,13.93
2023-03-23T23:45:13.889Z,14.03
2023-03-23T23:47:45.647Z,14.00
2023-03-23T23:50:16.825Z,14.16
2023-03-23T23:52:45.675Z,13.93
2023-03-23T23:55:16.317Z,13.89
2023-03-23T23:57:44.994Z,13.72
